sensor_id;sensor_type;location;lat;lon;timestamp;P1;durP1;ratioP1;P2;durP2;ratioP2
3939;SDS011;1984;48.312;9.244;2023-04-15T00:01:11;1.47;;;1.30;;
3939;SDS011;1984;48.312;9.244;2023-04-15T00:03:42;1.13;;;0.97;;
3939;SDS011;1984;48.312;9.244;2023-04-15T00:06:08;1.43;;;0.90;;
3939;SDS011;1984;48.312;9.244;2023-04-15T00:08:33;2.37;;;1.33;;
3939;SDS011;1984;48.312;9.244;2023-04-15T00:10:59;2.23;;;1.33;;
3939;SDS011;1984;48.312;9.244;2023-04-15T00:13:26;1.20;;;1.10;;
3939;SDS011;1984;48.312;9.244;2023-04-15T00:15:52;2.17;;;1.50;;
3939;SDS011;1984;48.312;9.244;2023-04-15T00:18:17;4.50;;;1.67;;
3939;SDS011;1984;48.312;9.244;2023-04-15T00:20:43;1.67;;;1.23;;
3939;SDS011;1984;48.312;9.244;2023-04-15T00:23:09;1.30;;;1.20;;
3939;SDS011;1984;48.312;9.244;2023-04-15T00:25:34;2.07;;;1.10;;
3939;SDS011;1984;48.312;9.244;2023-04-15T00:28:00;1.20;;;1.10;;
3939;SDS011;1984;48.312;9.244;2023-04-15T00:30:25;2.10;;;1.00;;
3939;SDS011;1984;48.312;9.244;2023-04-15T00:32:51;2.77;;;1.47;;
3939;SDS011;1984;48.312;9.244;2023-04-15T00:35:16;1.30;;;1.20;;
3939;SDS011;1984;48.312;9.244;2023-04-15T00:37:42;3.03;;;1.10;;
3939;SDS011;1984;48.312;9.244;2023-04-15T00:40:09;1.67;;;1.57;;
3939;SDS011;1984;48.312;9.244;2023-04-15T00:42:37;3.30;;;1.37;;
3939;SDS011;1984;48.312;9.244;2023-04-15T00:45:03;5.47;;;1.60;;
3939;SDS011;1984;48.312;9.244;2023-04-15T00:47:29;1.30;;;1.20;;
3939;SDS011;1984;48.312;9.244;2023-04-15T00:49:57;1.93;;;1.50;;
3939;SDS011;1984;48.312;9.244;2023-04-15T00:52:23;3.53;;;1.77;;
3939;SDS011;1984;48.312;9.244;2023-04-15T00:54:48;4.07;;;1.40;;
3939;SDS011;1984;48.312;9.244;2023-04-15T00:57:15;1.77;;;1.30;;
3939;SDS011;1984;48.312;9.244;2023-04-15T00:59:41;4.53;;;1.60;;
3939;SDS011;1984;48.312;9.244;2023-04-15T01:02:06;2.73;;;1.83;;
3939;SDS011;1984;48.312;9.244;2023-04-15T01:04:32;1.73;;;1.63;;
3939;SDS011;1984;48.312;9.244;2023-04-15T01:06:58;3.80;;;1.63;;
3939;SDS011;1984;48.312;9.244;2023-04-15T01:09:23;2.27;;;2.07;;
3939;SDS011;1984;48.312;9.244;2023-04-15T01:11:49;2.77;;;1.80;;
3939;SDS011;1984;48.312;9.244;2023-04-15T01:14:15;3.33;;;1.90;;
3939;SDS011;1984;48.312;9.244;2023-04-15T01:16:41;5.23;;;1.40;;
3939;SDS011;1984;48.312;9.244;2023-04-15T01:19:07;4.17;;;1.60;;
3939;SDS011;1984;48.312;9.244;2023-04-15T01:21:37;4.83;;;1.57;;
3939;SDS011;1984;48.312;9.244;2023-04-15T01:24:05;1.10;;;1.10;;
3939;SDS011;1984;48.312;9.244;2023-04-15T01:26:35;1.80;;;1.50;;
3939;SDS011;1984;48.312;9.244;2023-04-15T01:29:04;5.30;;;1.50;;
3939;SDS011;1984;48.312;9.244;2023-04-15T01:31:31;12.50;;;1.63;;
3939;SDS011;1984;48.312;9.244;2023-04-15T01:33:57;1.47;;;1.10;;
3939;SDS011;1984;48.312;9.244;2023-04-15T01:36:23;2.97;;;1.30;;
3939;SDS011;1984;48.312;9.244;2023-04-15T01:38:48;13.10;;;1.60;;
3939;SDS011;1984;48.312;9.244;2023-04-15T01:41:15;1.10;;;1.10;;
3939;SDS011;1984;48.312;9.244;2023-04-15T01:43:41;2.80;;;1.97;;
3939;SDS011;1984;48.312;9.244;2023-04-15T01:46:06;1.63;;;1.23;;
3939;SDS011;1984;48.312;9.244;2023-04-15T01:48:32;15.83;;;2.10;;
3939;SDS011;1984;48.312;9.244;2023-04-15T01:50:58;1.70;;;1.53;;
3939;SDS011;1984;48.312;9.244;2023-04-15T01:53:24;1.13;;;1.13;;
3939;SDS011;1984;48.312;9.244;2023-04-15T01:55:50;10.00;;;1.20;;
3939;SDS011;1984;48.312;9.244;2023-04-15T01:58:16;2.10;;;1.50;;
3939;SDS011;1984;48.312;9.244;2023-04-15T02:00:42;2.00;;;1.80;;
3939;SDS011;1984;48.312;9.244;2023-04-15T02:03:09;1.60;;;1.50;;
3939;SDS011;1984;48.312;9.244;2023-04-15T02:05:34;1.40;;;1.27;;
3939;SDS011;1984;48.312;9.244;2023-04-15T02:08:00;5.30;;;1.93;;
3939;SDS011;1984;48.312;9.244;2023-04-15T02:10:26;2.50;;;1.53;;
3939;SDS011;1984;48.312;9.244;2023-04-15T02:12:51;2.53;;;1.47;;
3939;SDS011;1984;48.312;9.244;2023-04-15T02:15:18;6.83;;;1.60;;
3939;SDS011;1984;48.312;9.244;2023-04-15T02:17:44;1.50;;;1.00;;
3939;SDS011;1984;48.312;9.244;2023-04-15T02:20:14;2.87;;;1.60;;
3939;SDS011;1984;48.312;9.244;2023-04-15T02:22:41;3.80;;;1.10;;
3939;SDS011;1984;48.312;9.244;2023-04-15T02:25:06;2.40;;;1.47;;
3939;SDS011;1984;48.312;9.244;2023-04-15T02:27:33;1.90;;;1.80;;
3939;SDS011;1984;48.312;9.244;2023-04-15T02:29:59;3.93;;;1.23;;
3939;SDS011;1984;48.312;9.244;2023-04-15T02:32:25;1.50;;;1.10;;
3939;SDS011;1984;48.312;9.244;2023-04-15T02:34:51;2.83;;;1.30;;
3939;SDS011;1984;48.312;9.244;2023-04-15T02:37:17;2.30;;;1.53;;
3939;SDS011;1984;48.312;9.244;2023-04-15T02:39:44;43.07;;;2.40;;
3939;SDS011;1984;48.312;9.244;2023-04-15T02:42:09;4.93;;;1.57;;
3939;SDS011;1984;48.312;9.244;2023-04-15T02:44:35;2.40;;;1.50;;
3939;SDS011;1984;48.312;9.244;2023-04-15T02:47:01;2.30;;;1.20;;
3939;SDS011;1984;48.312;9.244;2023-04-15T02:49:27;1.50;;;1.40;;
3939;SDS011;1984;48.312;9.244;2023-04-15T02:51:54;1.73;;;1.37;;
3939;SDS011;1984;48.312;9.244;2023-04-15T02:54:22;2.83;;;2.17;;
3939;SDS011;1984;48.312;9.244;2023-04-15T02:56:48;2.77;;;1.77;;
3939;SDS011;1984;48.312;9.244;2023-04-15T02:59:14;1.27;;;1.13;;
3939;SDS011;1984;48.312;9.244;2023-04-15T03:01:40;1.47;;;1.20;;
3939;SDS011;1984;48.312;9.244;2023-04-15T03:04:06;3.90;;;1.90;;
3939;SDS011;1984;48.312;9.244;2023-04-15T03:06:34;2.73;;;2.47;;
3939;SDS011;1984;48.312;9.244;2023-04-15T03:09:00;1.97;;;1.70;;
3939;SDS011;1984;48.312;9.244;2023-04-15T03:11:26;2.77;;;1.47;;
3939;SDS011;1984;48.312;9.244;2023-04-15T03:13:53;2.20;;;1.30;;
3939;SDS011;1984;48.312;9.244;2023-04-15T03:16:18;4.93;;;1.60;;
3939;SDS011;1984;48.312;9.244;2023-04-15T03:18:44;3.43;;;1.53;;
3939;SDS011;1984;48.312;9.244;2023-04-15T03:21:09;2.50;;;1.90;;
3939;SDS011;1984;48.312;9.244;2023-04-15T03:23:35;2.13;;;1.47;;
3939;SDS011;1984;48.312;9.244;2023-04-15T03:26:01;1.77;;;1.67;;
3939;SDS011;1984;48.312;9.244;2023-04-15T03:28:26;2.40;;;2.00;;
3939;SDS011;1984;48.312;9.244;2023-04-15T03:30:53;2.97;;;1.70;;
3939;SDS011;1984;48.312;9.244;2023-04-15T03:33:19;2.23;;;1.43;;
3939;SDS011;1984;48.312;9.244;2023-04-15T03:35:44;5.83;;;1.93;;
3939;SDS011;1984;48.312;9.244;2023-04-15T03:38:10;5.93;;;1.80;;
3939;SDS011;1984;48.312;9.244;2023-04-15T03:40:36;2.10;;;1.43;;
3939;SDS011;1984;48.312;9.244;2023-04-15T03:43:02;5.17;;;2.43;;
3939;SDS011;1984;48.312;9.244;2023-04-15T03:45:28;4.53;;;1.53;;
3939;SDS011;1984;48.312;9.244;2023-04-15T03:47:53;2.53;;;2.27;;
3939;SDS011;1984;48.312;9.244;2023-04-15T03:50:19;6.57;;;2.40;;
3939;SDS011;1984;48.312;9.244;2023-04-15T03:52:45;3.80;;;2.90;;
3939;SDS011;1984;48.312;9.244;2023-04-15T03:55:10;9.57;;;4.80;;
3939;SDS011;1984;48.312;9.244;2023-04-15T03:57:36;8.67;;;4.40;;
3939;SDS011;1984;48.312;9.244;2023-04-15T04:00:06;12.43;;;6.00;;
3939;SDS011;1984;48.312;9.244;2023-04-15T04:02:33;12.13;;;6.00;;
3939;SDS011;1984;48.312;9.244;2023-04-15T04:04:59;11.27;;;6.43;;
3939;SDS011;1984;48.312;9.244;2023-04-15T04:07:24;15.83;;;5.53;;
3939;SDS011;1984;48.312;9.244;2023-04-15T04:09:50;8.43;;;4.17;;
3939;SDS011;1984;48.312;9.244;2023-04-15T04:12:15;12.63;;;4.30;;
3939;SDS011;1984;48.312;9.244;2023-04-15T04:14:41;14.73;;;6.00;;
3939;SDS011;1984;48.312;9.244;2023-04-15T04:17:06;16.70;;;7.10;;
3939;SDS011;1984;48.312;9.244;2023-04-15T04:19:32;16.50;;;7.30;;
3939;SDS011;1984;48.312;9.244;2023-04-15T04:21:58;16.27;;;7.40;;
3939;SDS011;1984;48.312;9.244;2023-04-15T04:24:23;15.07;;;6.40;;
3939;SDS011;1984;48.312;9.244;2023-04-15T04:26:49;7.23;;;4.33;;
3939;SDS011;1984;48.312;9.244;2023-04-15T04:29:15;11.20;;;4.93;;
3939;SDS011;1984;48.312;9.244;2023-04-15T04:31:40;3.90;;;3.13;;
3939;SDS011;1984;48.312;9.244;2023-04-15T04:34:06;2.13;;;1.93;;
3939;SDS011;1984;48.312;9.244;2023-04-15T04:36:31;4.13;;;2.60;;
3939;SDS011;1984;48.312;9.244;2023-04-15T04:38:57;3.57;;;2.63;;
3939;SDS011;1984;48.312;9.244;2023-04-15T04:41:22;12.00;;;4.00;;
3939;SDS011;1984;48.312;9.244;2023-04-15T04:43:48;4.80;;;3.30;;
3939;SDS011;1984;48.312;9.244;2023-04-15T04:46:13;7.43;;;4.00;;
3939;SDS011;1984;48.312;9.244;2023-04-15T04:48:39;4.90;;;3.70;;
3939;SDS011;1984;48.312;9.244;2023-04-15T04:51:05;6.23;;;3.90;;
3939;SDS011;1984;48.312;9.244;2023-04-15T04:53:31;7.70;;;4.20;;
3939;SDS011;1984;48.312;9.244;2023-04-15T04:55:57;11.70;;;4.40;;
3939;SDS011;1984;48.312;9.244;2023-04-15T04:58:23;6.20;;;3.80;;
3939;SDS011;1984;48.312;9.244;2023-04-15T05:00:49;6.40;;;4.30;;
3939;SDS011;1984;48.312;9.244;2023-04-15T05:03:15;3.03;;;2.73;;
3939;SDS011;1984;48.312;9.244;2023-04-15T05:05:40;10.27;;;4.10;;
3939;SDS011;1984;48.312;9.244;2023-04-15T05:08:06;4.20;;;3.23;;
3939;SDS011;1984;48.312;9.244;2023-04-15T05:10:31;3.77;;;2.83;;
3939;SDS011;1984;48.312;9.244;2023-04-15T05:12:57;6.17;;;2.30;;
3939;SDS011;1984;48.312;9.244;2023-04-15T05:15:22;4.87;;;2.50;;
3939;SDS011;1984;48.312;9.244;2023-04-15T05:17:48;3.67;;;2.40;;
3939;SDS011;1984;48.312;9.244;2023-04-15T05:20:14;5.83;;;2.70;;
3939;SDS011;1984;48.312;9.244;2023-04-15T05:22:39;7.73;;;2.80;;
3939;SDS011;1984;48.312;9.244;2023-04-15T05:25:05;6.93;;;3.57;;
3939;SDS011;1984;48.312;9.244;2023-04-15T05:27:31;3.60;;;2.90;;
3939;SDS011;1984;48.312;9.244;2023-04-15T05:29:56;12.50;;;4.27;;
3939;SDS011;1984;48.312;9.244;2023-04-15T05:32:22;8.03;;;4.00;;
3939;SDS011;1984;48.312;9.244;2023-04-15T05:34:48;8.63;;;3.83;;
3939;SDS011;1984;48.312;9.244;2023-04-15T05:37:13;6.67;;;4.03;;
3939;SDS011;1984;48.312;9.244;2023-04-15T05:39:39;5.70;;;3.57;;
3939;SDS011;1984;48.312;9.244;2023-04-15T05:42:05;5.07;;;3.77;;
3939;SDS011;1984;48.312;9.244;2023-04-15T05:44:30;5.40;;;4.40;;
3939;SDS011;1984;48.312;9.244;2023-04-15T05:46:56;4.03;;;3.50;;
3939;SDS011;1984;48.312;9.244;2023-04-15T05:49:22;5.97;;;3.30;;
3939;SDS011;1984;48.312;9.244;2023-04-15T05:51:47;7.80;;;3.03;;
3939;SDS011;1984;48.312;9.244;2023-04-15T05:54:13;2.33;;;2.13;;
3939;SDS011;1984;48.312;9.244;2023-04-15T05:56:39;11.73;;;2.80;;
3939;SDS011;1984;48.312;9.244;2023-04-15T05:59:04;3.70;;;3.33;;
3939;SDS011;1984;48.312;9.244;2023-04-15T06:01:30;7.30;;;3.70;;
3939;SDS011;1984;48.312;9.244;2023-04-15T06:03:57;4.23;;;3.20;;
3939;SDS011;1984;48.312;9.244;2023-04-15T06:06:23;2.50;;;2.30;;
3939;SDS011;1984;48.312;9.244;2023-04-15T06:08:49;6.00;;;2.63;;
3939;SDS011;1984;48.312;9.244;2023-04-15T06:11:14;6.43;;;3.77;;
3939;SDS011;1984;48.312;9.244;2023-04-15T06:13:40;4.47;;;3.43;;
3939;SDS011;1984;48.312;9.244;2023-04-15T06:16:05;5.83;;;4.90;;
3939;SDS011;1984;48.312;9.244;2023-04-15T06:18:31;7.30;;;4.40;;
3939;SDS011;1984;48.312;9.244;2023-04-15T06:20:57;20.30;;;10.00;;
3939;SDS011;1984;48.312;9.244;2023-04-15T06:23:23;30.13;;;11.93;;
3939;SDS011;1984;48.312;9.244;2023-04-15T06:25:48;36.63;;;11.90;;
3939;SDS011;1984;48.312;9.244;2023-04-15T06:28:14;32.33;;;11.00;;
3939;SDS011;1984;48.312;9.244;2023-04-15T06:30:39;28.90;;;10.67;;
3939;SDS011;1984;48.312;9.244;2023-04-15T06:33:05;32.30;;;10.50;;
3939;SDS011;1984;48.312;9.244;2023-04-15T06:35:31;27.03;;;10.10;;
3939;SDS011;1984;48.312;9.244;2023-04-15T06:37:56;24.97;;;9.67;;
3939;SDS011;1984;48.312;9.244;2023-04-15T06:40:22;20.93;;;8.17;;
3939;SDS011;1984;48.312;9.244;2023-04-15T06:42:48;15.13;;;6.50;;
3939;SDS011;1984;48.312;9.244;2023-04-15T06:45:14;20.63;;;7.60;;
3939;SDS011;1984;48.312;9.244;2023-04-15T06:47:40;19.67;;;8.17;;
3939;SDS011;1984;48.312;9.244;2023-04-15T06:50:06;21.43;;;8.00;;
3939;SDS011;1984;48.312;9.244;2023-04-15T06:52:33;19.43;;;8.47;;
3939;SDS011;1984;48.312;9.244;2023-04-15T06:54:59;23.37;;;10.10;;
3939;SDS011;1984;48.312;9.244;2023-04-15T06:57:26;27.10;;;12.47;;
3939;SDS011;1984;48.312;9.244;2023-04-15T06:59:52;26.47;;;11.53;;
3939;SDS011;1984;48.312;9.244;2023-04-15T07:02:18;21.60;;;8.00;;
3939;SDS011;1984;48.312;9.244;2023-04-15T07:04:44;17.60;;;8.60;;
3939;SDS011;1984;48.312;9.244;2023-04-15T07:07:10;13.90;;;7.00;;
3939;SDS011;1984;48.312;9.244;2023-04-15T07:09:36;21.87;;;7.70;;
3939;SDS011;1984;48.312;9.244;2023-04-15T07:12:02;14.53;;;8.23;;
3939;SDS011;1984;48.312;9.244;2023-04-15T07:14:28;14.37;;;6.97;;
3939;SDS011;1984;48.312;9.244;2023-04-15T07:16:54;11.83;;;5.93;;
3939;SDS011;1984;48.312;9.244;2023-04-15T07:19:19;8.20;;;5.37;;
3939;SDS011;1984;48.312;9.244;2023-04-15T07:21:45;11.50;;;5.90;;
3939;SDS011;1984;48.312;9.244;2023-04-15T07:24:11;13.93;;;7.80;;
3939;SDS011;1984;48.312;9.244;2023-04-15T07:26:40;21.67;;;8.33;;
3939;SDS011;1984;48.312;9.244;2023-04-15T07:29:06;14.87;;;7.50;;
3939;SDS011;1984;48.312;9.244;2023-04-15T07:31:31;18.53;;;8.17;;
3939;SDS011;1984;48.312;9.244;2023-04-15T07:33:57;15.80;;;8.00;;
3939;SDS011;1984;48.312;9.244;2023-04-15T07:36:23;14.70;;;9.43;;
3939;SDS011;1984;48.312;9.244;2023-04-15T07:38:49;12.50;;;7.93;;
3939;SDS011;1984;48.312;9.244;2023-04-15T07:41:14;13.83;;;8.30;;
3939;SDS011;1984;48.312;9.244;2023-04-15T07:43:40;8.50;;;6.20;;
3939;SDS011;1984;48.312;9.244;2023-04-15T07:46:06;11.90;;;6.30;;
3939;SDS011;1984;48.312;9.244;2023-04-15T07:48:31;11.87;;;6.37;;
3939;SDS011;1984;48.312;9.244;2023-04-15T07:50:57;14.87;;;7.93;;
3939;SDS011;1984;48.312;9.244;2023-04-15T07:53:23;12.60;;;6.80;;
3939;SDS011;1984;48.312;9.244;2023-04-15T07:55:49;22.47;;;8.23;;
3939;SDS011;1984;48.312;9.244;2023-04-15T07:58:14;10.97;;;8.00;;
3939;SDS011;1984;48.312;9.244;2023-04-15T08:00:40;23.40;;;7.90;;
3939;SDS011;1984;48.312;9.244;2023-04-15T08:03:05;11.67;;;6.73;;
3939;SDS011;1984;48.312;9.244;2023-04-15T08:05:31;11.87;;;6.63;;
3939;SDS011;1984;48.312;9.244;2023-04-15T08:07:57;9.27;;;6.30;;
3939;SDS011;1984;48.312;9.244;2023-04-15T08:10:22;7.50;;;5.83;;
3939;SDS011;1984;48.312;9.244;2023-04-15T08:12:48;9.37;;;5.30;;
3939;SDS011;1984;48.312;9.244;2023-04-15T08:15:13;8.60;;;5.80;;
3939;SDS011;1984;48.312;9.244;2023-04-15T08:17:39;9.53;;;5.57;;
3939;SDS011;1984;48.312;9.244;2023-04-15T08:20:06;12.33;;;7.27;;
3939;SDS011;1984;48.312;9.244;2023-04-15T08:22:31;4.73;;;3.57;;
3939;SDS011;1984;48.312;9.244;2023-04-15T08:24:57;4.67;;;2.90;;
3939;SDS011;1984;48.312;9.244;2023-04-15T08:27:23;9.97;;;3.83;;
3939;SDS011;1984;48.312;9.244;2023-04-15T08:29:49;5.87;;;3.37;;
3939;SDS011;1984;48.312;9.244;2023-04-15T08:32:14;9.90;;;3.00;;
3939;SDS011;1984;48.312;9.244;2023-04-15T08:34:40;7.10;;;2.80;;
3939;SDS011;1984;48.312;9.244;2023-04-15T08:37:06;2.83;;;1.90;;
3939;SDS011;1984;48.312;9.244;2023-04-15T08:39:32;5.17;;;2.10;;
3939;SDS011;1984;48.312;9.244;2023-04-15T08:42:01;2.40;;;1.80;;
3939;SDS011;1984;48.312;9.244;2023-04-15T08:44:28;4.20;;;1.90;;
3939;SDS011;1984;48.312;9.244;2023-04-15T08:46:56;5.73;;;2.20;;
3939;SDS011;1984;48.312;9.244;2023-04-15T08:49:24;6.37;;;2.30;;
3939;SDS011;1984;48.312;9.244;2023-04-15T08:51:52;5.17;;;2.20;;
3939;SDS011;1984;48.312;9.244;2023-04-15T08:54:20;5.37;;;2.00;;
3939;SDS011;1984;48.312;9.244;2023-04-15T08:56:46;4.87;;;1.97;;
3939;SDS011;1984;48.312;9.244;2023-04-15T08:59:12;22.33;;;2.10;;
3939;SDS011;1984;48.312;9.244;2023-04-15T09:01:40;8.40;;;1.40;;
3939;SDS011;1984;48.312;9.244;2023-04-15T09:04:06;4.37;;;1.87;;
3939;SDS011;1984;48.312;9.244;2023-04-15T09:06:32;7.27;;;1.63;;
3939;SDS011;1984;48.312;9.244;2023-04-15T09:08:58;3.20;;;1.60;;
3939;SDS011;1984;48.312;9.244;2023-04-15T09:11:23;3.90;;;1.53;;
3939;SDS011;1984;48.312;9.244;2023-04-15T09:13:49;4.20;;;1.57;;
3939;SDS011;1984;48.312;9.244;2023-04-15T09:16:15;3.23;;;1.63;;
3939;SDS011;1984;48.312;9.244;2023-04-15T09:18:41;4.47;;;1.37;;
3939;SDS011;1984;48.312;9.244;2023-04-15T09:21:08;1.70;;;1.17;;
3939;SDS011;1984;48.312;9.244;2023-04-15T09:23:36;2.07;;;1.40;;
3939;SDS011;1984;48.312;9.244;2023-04-15T09:26:03;2.00;;;1.30;;
3939;SDS011;1984;48.312;9.244;2023-04-15T09:28:29;4.20;;;1.83;;
3939;SDS011;1984;48.312;9.244;2023-04-15T09:30:56;5.87;;;2.13;;
3939;SDS011;1984;48.312;9.244;2023-04-15T09:33:22;4.37;;;1.80;;
3939;SDS011;1984;48.312;9.244;2023-04-15T09:36:01;4.63;;;2.07;;
3939;SDS011;1984;48.312;9.244;2023-04-15T09:38:28;5.50;;;1.80;;
3939;SDS011;1984;48.312;9.244;2023-04-15T09:40:55;6.17;;;2.87;;
3939;SDS011;1984;48.312;9.244;2023-04-15T09:43:21;2.87;;;1.87;;
3939;SDS011;1984;48.312;9.244;2023-04-15T09:45:48;1.90;;;1.20;;
3939;SDS011;1984;48.312;9.244;2023-04-15T09:48:24;3.17;;;2.00;;
3939;SDS011;1984;48.312;9.244;2023-04-15T09:50:58;2.57;;;1.30;;
3939;SDS011;1984;48.312;9.244;2023-04-15T09:53:25;2.50;;;1.30;;
3939;SDS011;1984;48.312;9.244;2023-04-15T09:55:53;3.03;;;1.77;;
3939;SDS011;1984;48.312;9.244;2023-04-15T10:00:46;2.90;;;1.40;;
3939;SDS011;1984;48.312;9.244;2023-04-15T10:03:16;8.83;;;2.03;;
3939;SDS011;1984;48.312;9.244;2023-04-15T10:05:49;1.60;;;1.50;;
3939;SDS011;1984;48.312;9.244;2023-04-15T10:08:19;4.13;;;1.60;;
3939;SDS011;1984;48.312;9.244;2023-04-15T10:10:47;5.40;;;2.20;;
3939;SDS011;1984;48.312;9.244;2023-04-15T10:13:13;5.73;;;3.20;;
3939;SDS011;1984;48.312;9.244;2023-04-15T10:15:48;4.33;;;2.03;;
3939;SDS011;1984;48.312;9.244;2023-04-15T10:18:25;3.17;;;1.90;;
3939;SDS011;1984;48.312;9.244;2023-04-15T10:20:52;4.53;;;1.90;;
3939;SDS011;1984;48.312;9.244;2023-04-15T10:23:18;5.57;;;1.70;;
3939;SDS011;1984;48.312;9.244;2023-04-15T10:25:45;2.60;;;1.53;;
3939;SDS011;1984;48.312;9.244;2023-04-15T10:28:12;2.20;;;1.73;;
3939;SDS011;1984;48.312;9.244;2023-04-15T10:30:39;4.93;;;1.53;;
3939;SDS011;1984;48.312;9.244;2023-04-15T10:33:06;3.17;;;1.67;;
3939;SDS011;1984;48.312;9.244;2023-04-15T10:35:33;3.50;;;1.50;;
3939;SDS011;1984;48.312;9.244;2023-04-15T10:38:00;2.83;;;1.40;;
3939;SDS011;1984;48.312;9.244;2023-04-15T10:42:55;2.90;;;1.37;;
3939;SDS011;1984;48.312;9.244;2023-04-15T10:45:21;5.63;;;1.20;;
3939;SDS011;1984;48.312;9.244;2023-04-15T10:47:54;6.60;;;0.80;;
3939;SDS011;1984;48.312;9.244;2023-04-15T10:50:21;1.23;;;0.70;;
3939;SDS011;1984;48.312;9.244;2023-04-15T10:52:49;4.07;;;1.27;;
3939;SDS011;1984;48.312;9.244;2023-04-15T10:55:20;7.03;;;1.13;;
3939;SDS011;1984;48.312;9.244;2023-04-15T10:57:50;5.63;;;1.10;;
3939;SDS011;1984;48.312;9.244;2023-04-15T11:00:29;3.70;;;0.93;;
3939;SDS011;1984;48.312;9.244;2023-04-15T11:02:56;1.37;;;1.10;;
3939;SDS011;1984;48.312;9.244;2023-04-15T11:08:16;1.90;;;0.80;;
3939;SDS011;1984;48.312;9.244;2023-04-15T11:15:36;1.47;;;1.30;;
3939;SDS011;1984;48.312;9.244;2023-04-15T11:20:41;3.33;;;1.30;;
3939;SDS011;1984;48.312;9.244;2023-04-15T11:23:11;1.53;;;1.40;;
3939;SDS011;1984;48.312;9.244;2023-04-15T11:25:38;1.60;;;1.50;;
3939;SDS011;1984;48.312;9.244;2023-04-15T11:28:04;2.90;;;1.80;;
3939;SDS011;1984;48.312;9.244;2023-04-15T11:30:33;1.53;;;1.30;;
3939;SDS011;1984;48.312;9.244;2023-04-15T11:33:02;8.17;;;2.60;;
3939;SDS011;1984;48.312;9.244;2023-04-15T11:35:29;3.97;;;1.53;;
3939;SDS011;1984;48.312;9.244;2023-04-15T11:37:55;6.73;;;2.17;;
3939;SDS011;1984;48.312;9.244;2023-04-15T11:40:23;4.07;;;1.93;;
3939;SDS011;1984;48.312;9.244;2023-04-15T11:48:19;4.00;;;1.60;;
3939;SDS011;1984;48.312;9.244;2023-04-15T11:50:51;8.53;;;3.00;;
3939;SDS011;1984;48.312;9.244;2023-04-15T11:53:21;3.60;;;1.80;;
3939;SDS011;1984;48.312;9.244;2023-04-15T11:55:48;2.63;;;1.53;;
3939;SDS011;1984;48.312;9.244;2023-04-15T12:00:51;2.90;;;2.00;;
3939;SDS011;1984;48.312;9.244;2023-04-15T12:13:53;4.63;;;1.33;;
3939;SDS011;1984;48.312;9.244;2023-04-15T12:16:39;4.47;;;2.10;;
3939;SDS011;1984;48.312;9.244;2023-04-15T12:19:22;5.67;;;1.60;;
3939;SDS011;1984;48.312;9.244;2023-04-15T12:21:54;9.10;;;1.90;;
3939;SDS011;1984;48.312;9.244;2023-04-15T12:24:25;6.57;;;1.57;;
3939;SDS011;1984;48.312;9.244;2023-04-15T12:26:52;3.40;;;1.40;;
3939;SDS011;1984;48.312;9.244;2023-04-15T12:29:19;3.20;;;1.80;;
3939;SDS011;1984;48.312;9.244;2023-04-15T12:31:50;1.60;;;1.50;;
3939;SDS011;1984;48.312;9.244;2023-04-15T12:34:24;2.17;;;1.50;;
3939;SDS011;1984;48.312;9.244;2023-04-15T12:36:52;3.97;;;2.00;;
3939;SDS011;1984;48.312;9.244;2023-04-15T12:39:20;7.43;;;1.90;;
3939;SDS011;1984;48.312;9.244;2023-04-15T12:41:47;6.10;;;1.70;;
3939;SDS011;1984;48.312;9.244;2023-04-15T12:44:13;3.17;;;1.93;;
3939;SDS011;1984;48.312;9.244;2023-04-15T12:46:38;4.03;;;2.67;;
3939;SDS011;1984;48.312;9.244;2023-04-15T12:49:04;2.57;;;2.33;;
3939;SDS011;1984;48.312;9.244;2023-04-15T12:51:29;2.70;;;1.93;;
3939;SDS011;1984;48.312;9.244;2023-04-15T12:53:55;2.83;;;1.97;;
3939;SDS011;1984;48.312;9.244;2023-04-15T12:56:21;5.50;;;2.30;;
3939;SDS011;1984;48.312;9.244;2023-04-15T12:58:47;8.30;;;3.03;;
3939;SDS011;1984;48.312;9.244;2023-04-15T13:01:13;18.40;;;7.73;;
3939;SDS011;1984;48.312;9.244;2023-04-15T13:03:39;7.73;;;3.33;;
3939;SDS011;1984;48.312;9.244;2023-04-15T13:06:04;4.17;;;3.13;;
3939;SDS011;1984;48.312;9.244;2023-04-15T13:08:30;2.50;;;2.10;;
3939;SDS011;1984;48.312;9.244;2023-04-15T13:10:56;6.50;;;2.23;;
3939;SDS011;1984;48.312;9.244;2023-04-15T13:13:22;3.07;;;1.63;;
3939;SDS011;1984;48.312;9.244;2023-04-15T13:15:47;3.23;;;1.43;;
3939;SDS011;1984;48.312;9.244;2023-04-15T13:18:13;4.87;;;1.63;;
3939;SDS011;1984;48.312;9.244;2023-04-15T13:20:39;4.20;;;2.20;;
3939;SDS011;1984;48.312;9.244;2023-04-15T13:23:05;5.07;;;2.00;;
3939;SDS011;1984;48.312;9.244;2023-04-15T13:25:31;6.70;;;1.73;;
3939;SDS011;1984;48.312;9.244;2023-04-15T13:27:56;2.43;;;1.93;;
3939;SDS011;1984;48.312;9.244;2023-04-15T13:30:22;6.23;;;1.93;;
3939;SDS011;1984;48.312;9.244;2023-04-15T13:32:48;3.17;;;1.70;;
3939;SDS011;1984;48.312;9.244;2023-04-15T13:35:13;1.93;;;1.80;;
3939;SDS011;1984;48.312;9.244;2023-04-15T13:37:39;7.17;;;2.07;;
3939;SDS011;1984;48.312;9.244;2023-04-15T13:40:05;3.07;;;2.40;;
3939;SDS011;1984;48.312;9.244;2023-04-15T13:42:33;3.57;;;2.13;;
3939;SDS011;1984;48.312;9.244;2023-04-15T13:44:59;3.40;;;1.90;;
3939;SDS011;1984;48.312;9.244;2023-04-15T13:47:24;3.07;;;2.30;;
3939;SDS011;1984;48.312;9.244;2023-04-15T13:49:50;4.00;;;2.03;;
3939;SDS011;1984;48.312;9.244;2023-04-15T13:52:16;9.83;;;2.30;;
3939;SDS011;1984;48.312;9.244;2023-04-15T13:54:42;11.60;;;2.27;;
3939;SDS011;1984;48.312;9.244;2023-04-15T13:57:07;2.90;;;1.70;;
3939;SDS011;1984;48.312;9.244;2023-04-15T13:59:33;4.40;;;2.47;;
3939;SDS011;1984;48.312;9.244;2023-04-15T14:01:59;3.27;;;2.80;;
3939;SDS011;1984;48.312;9.244;2023-04-15T14:04:24;11.30;;;4.73;;
3939;SDS011;1984;48.312;9.244;2023-04-15T14:06:50;4.13;;;2.80;;
3939;SDS011;1984;48.312;9.244;2023-04-15T14:09:16;4.93;;;3.17;;
3939;SDS011;1984;48.312;9.244;2023-04-15T14:11:42;3.37;;;3.07;;
3939;SDS011;1984;48.312;9.244;2023-04-15T14:14:07;2.80;;;2.60;;
3939;SDS011;1984;48.312;9.244;2023-04-15T14:16:33;5.80;;;3.50;;
3939;SDS011;1984;48.312;9.244;2023-04-15T14:18:59;7.53;;;3.13;;
3939;SDS011;1984;48.312;9.244;2023-04-15T14:21:26;3.83;;;3.37;;
3939;SDS011;1984;48.312;9.244;2023-04-15T14:23:55;9.37;;;4.47;;
3939;SDS011;1984;48.312;9.244;2023-04-15T14:26:21;6.33;;;4.03;;
3939;SDS011;1984;48.312;9.244;2023-04-15T14:28:47;5.97;;;3.17;;
3939;SDS011;1984;48.312;9.244;2023-04-15T14:31:12;5.73;;;2.87;;
3939;SDS011;1984;48.312;9.244;2023-04-15T14:33:38;3.70;;;3.40;;
3939;SDS011;1984;48.312;9.244;2023-04-15T14:36:04;3.07;;;2.80;;
3939;SDS011;1984;48.312;9.244;2023-04-15T14:38:32;3.57;;;2.57;;
3939;SDS011;1984;48.312;9.244;2023-04-15T14:41:02;8.43;;;5.43;;
3939;SDS011;1984;48.312;9.244;2023-04-15T14:43:28;9.57;;;3.17;;
3939;SDS011;1984;48.312;9.244;2023-04-15T14:45:54;3.23;;;2.47;;
3939;SDS011;1984;48.312;9.244;2023-04-15T14:48:19;6.90;;;2.80;;
3939;SDS011;1984;48.312;9.244;2023-04-15T14:50:45;3.50;;;3.20;;
3939;SDS011;1984;48.312;9.244;2023-04-15T14:53:11;8.00;;;3.23;;
3939;SDS011;1984;48.312;9.244;2023-04-15T14:55:36;3.27;;;2.97;;
3939;SDS011;1984;48.312;9.244;2023-04-15T14:58:02;10.70;;;4.80;;
3939;SDS011;1984;48.312;9.244;2023-04-15T15:00:28;10.03;;;3.57;;
3939;SDS011;1984;48.312;9.244;2023-04-15T15:02:54;9.23;;;5.03;;
3939;SDS011;1984;48.312;9.244;2023-04-15T15:05:20;3.67;;;3.17;;
3939;SDS011;1984;48.312;9.244;2023-04-15T15:07:45;4.87;;;3.40;;
3939;SDS011;1984;48.312;9.244;2023-04-15T15:10:11;4.33;;;3.27;;
3939;SDS011;1984;48.312;9.244;2023-04-15T15:12:36;7.27;;;3.23;;
3939;SDS011;1984;48.312;9.244;2023-04-15T15:15:02;7.37;;;3.47;;
3939;SDS011;1984;48.312;9.244;2023-04-15T15:17:28;3.53;;;2.93;;
3939;SDS011;1984;48.312;9.244;2023-04-15T15:19:54;5.37;;;3.73;;
3939;SDS011;1984;48.312;9.244;2023-04-15T15:22:20;2.80;;;2.60;;
3939;SDS011;1984;48.312;9.244;2023-04-15T15:24:46;7.37;;;3.50;;
3939;SDS011;1984;48.312;9.244;2023-04-15T15:27:12;3.87;;;3.10;;
3939;SDS011;1984;48.312;9.244;2023-04-15T15:29:37;6.03;;;3.60;;
3939;SDS011;1984;48.312;9.244;2023-04-15T15:32:03;3.80;;;3.40;;
3939;SDS011;1984;48.312;9.244;2023-04-15T15:34:28;2.43;;;2.23;;
3939;SDS011;1984;48.312;9.244;2023-04-15T15:36:54;1.80;;;1.70;;
3939;SDS011;1984;48.312;9.244;2023-04-15T15:39:21;2.90;;;2.10;;
3939;SDS011;1984;48.312;9.244;2023-04-15T15:41:47;2.30;;;1.97;;